Cinque Terre — IUTV — position and weather

sailwx.info

Track history (hours):
 
Tides and Currents Weather Stations Pressure Air Temp Water Temp Dewpoint Dewpoint Depression Visibility Wind Speed Wind Dir Waves Ship Positions

Cinque Terre

Last reported at 2015-Apr-26 15:25 UTC. Time now 2015-Apr-28 19:53 UTC.
Position N 40°37' E 014°20'.

Length 15 m; draft 1 m.

Type: Passenger vessel. MMSI: 247208400.

Date/timePositionNaut miles runAvg speedWind from/ knotsBaromVisibWave heightAir tempDewpointWater temp
2015-Apr-26 15:25N 40°37' E 014°20'2 1.1
2015-Apr-26 13:33N 40°35' E 014°18'1 0.2
2015-Apr-26 08:30N 40°34' E 014°17'3 3.5
2015-Apr-26 07:33N 40°34' E 014°13'6 5.9
2015-Apr-26 06:32N 40°37' E 014°20'0 0.0
2015-Apr-25 15:07N 40°37' E 014°20'3 5.8
2015-Apr-25 14:33N 40°34' E 014°17'3 2.8
2015-Apr-25 13:33N 40°33' E 014°14'0 0.0
2015-Apr-25 12:33N 40°33' E 014°14'0 0.0
2015-Apr-25 11:33N 40°33' E 014°14'0 0.0
2015-Apr-25 10:33N 40°33' E 014°14'0 0.2
2015-Apr-25 08:33N 40°32' E 014°14'2 2.4
2015-Apr-25 07:33N 40°34' E 014°16'4 4.2
2015-Apr-25 06:33N 40°37' E 014°20'0 0.0
2015-Apr-24 17:11N 40°37' E 014°20'3 4.6
2015-Apr-24 16:28N 40°36' E 014°24'1 0.8
2015-Apr-24 15:33N 40°36' E 014°25'5 5.4
2015-Apr-24 14:34N 40°35' E 014°18'3 2.5
2015-Apr-24 13:30N 40°33' E 014°16'5 4.9
2015-Apr-24 12:33N 40°37' E 014°20'0 0.0
2015-Apr-24 11:33N 40°37' E 014°20'6 6.5
2015-Apr-24 10:33N 40°43' E 014°21'3 2.6
2015-Apr-24 09:33N 40°46' E 014°21'1413.7
2015-Apr-24 08:33N 40°32' E 014°15'3 2.8
2015-Apr-24 07:33N 40°35' E 014°17'3 2.9
2015-Apr-24 06:33N 40°37' E 014°20'0 0.0
2015-Apr-23 15:33N 40°37' E 014°20'6 6.0
2015-Apr-23 14:33N 40°34' E 014°13'1 1.3
2015-Apr-23 13:33N 40°33' E 014°14'0 0.0
2015-Apr-23 12:33N 40°33' E 014°14'0 0.0
2015-Apr-23 11:33N 40°33' E 014°14'0 0.0
2015-Apr-23 10:33N 40°33' E 014°14'0 0.0
2015-Apr-23 09:33N 40°33' E 014°14'2 0.9
2015-Apr-23 07:33N 40°34' E 014°16'4 4.1
2015-Apr-23 06:31N 40°37' E 014°20'0 0.0
2015-Apr-22 15:21N 40°37' E 014°20'6 7.1
2015-Apr-22 14:33N 40°34' E 014°14'1 1.1
2015-Apr-22 13:33N 40°33' E 014°14'0 0.0
2015-Apr-22 12:33N 40°33' E 014°14'0 0.0
2015-Apr-22 11:33N 40°33' E 014°14'0 0.0
2015-Apr-22 10:33N 40°33' E 014°14'0 0.0
2015-Apr-22 08:19N 40°33' E 014°14'2 2.3
2015-Apr-22 07:31N 40°34' E 014°16'4 4.4
2015-Apr-22 06:32N 40°37' E 014°20'0 0.0
2015-Apr-21 15:34N 40°37' E 014°20'6 5.9
2015-Apr-21 14:33N 40°34' E 014°13'1 1.2
2015-Apr-21 13:29N 40°33' E 014°14'0 0.0
2015-Apr-21 08:34N 40°33' E 014°14'3 2.9
2015-Apr-21 07:33N 40°34' E 014°17'3 2.7
2015-Apr-21 06:23N 40°37' E 014°20'0 0.0
2015-Apr-20 16:34N 40°37' E 014°20'7 6.9
2015-Apr-20 15:33N 40°37' E 014°29'8 8.0
2015-Apr-20 14:33N 40°34' E 014°19'1 0.0
2015-Apr-19 14:33N 40°35' E 014°18'3 2.1
2015-Apr-19 13:06N 40°33' E 014°15'0 0.0
2015-Apr-19 11:16N 40°33' E 014°15'0 0.0
2015-Apr-19 10:26N 40°33' E 014°15'1 0.5
2015-Apr-19 07:33N 40°34' E 014°14'5 5.5
2015-Apr-19 06:33N 40°37' E 014°20'0 0.0
2015-Apr-18 15:15N 40°37' E 014°20'5 7.8
2015-Apr-18 14:33N 40°34' E 014°14'1 0.7
2015-Apr-18 13:11N 40°33' E 014°14'0 0.0
2015-Apr-18 12:23N 40°33' E 014°14'0 0.0
2015-Apr-18 11:33N 40°33' E 014°14'0 0.0
2015-Apr-18 10:33N 40°33' E 014°14'0 0.0
2015-Apr-18 09:33N 40°33' E 014°14'0 0.0
2015-Apr-18 08:33N 40°33' E 014°14'2 2.1
2015-Apr-18 07:33N 40°34' E 014°16'4 3.7
2015-Apr-18 06:30N 40°37' E 014°20'0 0.0
2015-Apr-17 15:32N 40°37' E 014°20'8 6.6
2015-Apr-17 14:23N 40°32' E 014°12'4 5.2
2015-Apr-17 13:33N 40°35' E 014°17'3 0.8
2015-Apr-17 09:07N 40°37' E 014°20'4 7.6
2015-Apr-17 08:33N 40°34' E 014°16'4 4.2
2015-Apr-17 07:32N 40°37' E 014°20'0 0.0
2015-Apr-17 06:31N 40°37' E 014°20'  
Track history (hours):
 
Tides and Currents Weather Stations Pressure Air Temp Water Temp Dewpoint Dewpoint Depression Visibility Wind Speed Wind Dir Waves Ship Positions

Cinque Terre

Last reported at 2015-Apr-26 15:25 UTC. Time now 2015-Apr-28 19:53 UTC.
Position N 40°37' E 014°20'.

Length 15 m; draft 1 m.

Type: Passenger vessel. MMSI: 247208400.

Date/timePositionNaut miles runAvg speedWind from/ knotsBaromVisibWave heightAir tempDewpointWater temp
2015-Apr-26 15:25N 40°37' E 014°20'2 1.1
2015-Apr-26 13:33N 40°35' E 014°18'1 0.2
2015-Apr-26 08:30N 40°34' E 014°17'3 3.5
2015-Apr-26 07:33N 40°34' E 014°13'6 5.9
2015-Apr-26 06:32N 40°37' E 014°20'0 0.0
2015-Apr-25 15:07N 40°37' E 014°20'3 5.8
2015-Apr-25 14:33N 40°34' E 014°17'3 2.8
2015-Apr-25 13:33N 40°33' E 014°14'0 0.0
2015-Apr-25 12:33N 40°33' E 014°14'0 0.0
2015-Apr-25 11:33N 40°33' E 014°14'0 0.0
2015-Apr-25 10:33N 40°33' E 014°14'0 0.2
2015-Apr-25 08:33N 40°32' E 014°14'2 2.4
2015-Apr-25 07:33N 40°34' E 014°16'4 4.2
2015-Apr-25 06:33N 40°37' E 014°20'0 0.0
2015-Apr-24 17:11N 40°37' E 014°20'3 4.6
2015-Apr-24 16:28N 40°36' E 014°24'1 0.8
2015-Apr-24 15:33N 40°36' E 014°25'5 5.4
2015-Apr-24 14:34N 40°35' E 014°18'3 2.5
2015-Apr-24 13:30N 40°33' E 014°16'5 4.9
2015-Apr-24 12:33N 40°37' E 014°20'0 0.0
2015-Apr-24 11:33N 40°37' E 014°20'6 6.5
2015-Apr-24 10:33N 40°43' E 014°21'3 2.6
2015-Apr-24 09:33N 40°46' E 014°21'1413.7
2015-Apr-24 08:33N 40°32' E 014°15'3 2.8
2015-Apr-24 07:33N 40°35' E 014°17'3 2.9
2015-Apr-24 06:33N 40°37' E 014°20'0 0.0
2015-Apr-23 15:33N 40°37' E 014°20'6 6.0
2015-Apr-23 14:33N 40°34' E 014°13'1 1.3
2015-Apr-23 13:33N 40°33' E 014°14'0 0.0
2015-Apr-23 12:33N 40°33' E 014°14'0 0.0
2015-Apr-23 11:33N 40°33' E 014°14'0 0.0
2015-Apr-23 10:33N 40°33' E 014°14'0 0.0
2015-Apr-23 09:33N 40°33' E 014°14'2 0.9
2015-Apr-23 07:33N 40°34' E 014°16'4 4.1
2015-Apr-23 06:31N 40°37' E 014°20'0 0.0
2015-Apr-22 15:21N 40°37' E 014°20'6 7.1
2015-Apr-22 14:33N 40°34' E 014°14'1 1.1
2015-Apr-22 13:33N 40°33' E 014°14'0 0.0
2015-Apr-22 12:33N 40°33' E 014°14'0 0.0
2015-Apr-22 11:33N 40°33' E 014°14'0 0.0
2015-Apr-22 10:33N 40°33' E 014°14'0 0.0
2015-Apr-22 08:19N 40°33' E 014°14'2 2.3
2015-Apr-22 07:31N 40°34' E 014°16'4 4.4
2015-Apr-22 06:32N 40°37' E 014°20'0 0.0
2015-Apr-21 15:34N 40°37' E 014°20'6 5.9
2015-Apr-21 14:33N 40°34' E 014°13'1 1.2
2015-Apr-21 13:29N 40°33' E 014°14'0 0.0
2015-Apr-21 08:34N 40°33' E 014°14'3 2.9
2015-Apr-21 07:33N 40°34' E 014°17'3 2.7
2015-Apr-21 06:23N 40°37' E 014°20'0 0.0
2015-Apr-20 16:34N 40°37' E 014°20'7 6.9
2015-Apr-20 15:33N 40°37' E 014°29'8 8.0
2015-Apr-20 14:33N 40°34' E 014°19'1 0.0
2015-Apr-19 14:33N 40°35' E 014°18'3 2.1
2015-Apr-19 13:06N 40°33' E 014°15'0 0.0
2015-Apr-19 11:16N 40°33' E 014°15'0 0.0
2015-Apr-19 10:26N 40°33' E 014°15'1 0.5
2015-Apr-19 07:33N 40°34' E 014°14'5 5.5
2015-Apr-19 06:33N 40°37' E 014°20'0 0.0
2015-Apr-18 15:15N 40°37' E 014°20'5 7.8
2015-Apr-18 14:33N 40°34' E 014°14'1 0.7
2015-Apr-18 13:11N 40°33' E 014°14'0 0.0
2015-Apr-18 12:23N 40°33' E 014°14'0 0.0
2015-Apr-18 11:33N 40°33' E 014°14'0 0.0
2015-Apr-18 10:33N 40°33' E 014°14'0 0.0
2015-Apr-18 09:33N 40°33' E 014°14'0 0.0
2015-Apr-18 08:33N 40°33' E 014°14'2 2.1
2015-Apr-18 07:33N 40°34' E 014°16'4 3.7
2015-Apr-18 06:30N 40°37' E 014°20'0 0.0
2015-Apr-17 15:32N 40°37' E 014°20'8 6.6
2015-Apr-17 14:23N 40°32' E 014°12'4 5.2
2015-Apr-17 13:33N 40°35' E 014°17'3 0.8
2015-Apr-17 09:07N 40°37' E 014°20'4 7.6
2015-Apr-17 08:33N 40°34' E 014°16'4 4.2
2015-Apr-17 07:32N 40°37' E 014°20'0 0.0
2015-Apr-17 06:31N 40°37' E 014°20'  

Dump ship's entire track history